sensor_id;sensor_type;location;lat;lon;timestamp;noise_LAeq;noise_LA_min;noise_LA_max;noise_LA01;noise_LA95
47962;Laerm;33723;50.928;6.960;2022-12-07T06:02:17;67.92;56.21;76.98;;
47962;Laerm;33723;50.928;6.960;2022-12-07T06:04:43;69.59;54.54;77.51;;
47962;Laerm;33723;50.928;6.960;2022-12-07T06:07:09;68.07;52.41;76.00;;
47962;Laerm;33723;50.928;6.960;2022-12-07T06:09:35;69.03;55.53;79.19;;
47962;Laerm;33723;50.928;6.960;2022-12-07T06:12:00;69.22;53.82;75.17;;
47962;Laerm;33723;50.928;6.960;2022-12-07T06:14:44;68.92;55.50;81.36;;
47962;Laerm;33723;50.928;6.960;2022-12-07T06:17:10;69.48;57.08;78.82;;
47962;Laerm;33723;50.928;6.960;2022-12-07T06:19:35;69.83;56.29;77.19;;
47962;Laerm;33723;50.928;6.960;2022-12-07T06:22:01;67.59;55.40;74.39;;
47962;Laerm;33723;50.928;6.960;2022-12-07T06:24:27;70.34;56.30;79.83;;
47962;Laerm;33723;50.928;6.960;2022-12-07T06:26:53;68.95;55.24;75.74;;
47962;Laerm;33723;50.928;6.960;2022-12-07T06:29:18;69.50;57.60;76.61;;
47962;Laerm;33723;50.928;6.960;2022-12-07T06:31:44;67.90;55.91;78.41;;
47962;Laerm;33723;50.928;6.960;2022-12-07T06:34:10;69.29;54.93;79.37;;
47962;Laerm;33723;50.928;6.960;2022-12-07T06:36:36;67.32;55.20;74.62;;
47962;Laerm;33723;50.928;6.960;2022-12-07T06:39:01;67.75;55.79;74.97;;
47962;Laerm;33723;50.928;6.960;2022-12-07T06:41:26;69.62;57.99;78.79;;
47962;Laerm;33723;50.928;6.960;2022-12-07T06:43:51;68.59;56.58;77.72;;
47962;Laerm;33723;50.928;6.960;2022-12-07T06:46:17;68.15;54.36;76.30;;
47962;Laerm;33723;50.928;6.960;2022-12-07T06:48:42;69.62;55.74;81.13;;
47962;Laerm;33723;50.928;6.960;2022-12-07T06:51:08;71.27;58.95;82.66;;
47962;Laerm;33723;50.928;6.960;2022-12-07T06:53:33;67.46;55.69;76.55;;
47962;Laerm;33723;50.928;6.960;2022-12-07T06:55:58;69.41;55.33;78.61;;
47962;Laerm;33723;50.928;6.960;2022-12-07T06:58:24;68.36;56.19;76.02;;
47962;Laerm;33723;50.928;6.960;2022-12-07T07:00:49;68.07;56.99;74.36;;
47962;Laerm;33723;50.928;6.960;2022-12-07T07:03:15;69.50;57.69;76.67;;
47962;Laerm;33723;50.928;6.960;2022-12-07T07:05:40;69.21;57.22;76.87;;
47962;Laerm;33723;50.928;6.960;2022-12-07T07:08:06;70.19;56.67;79.93;;
47962;Laerm;33723;50.928;6.960;2022-12-07T07:10:31;69.28;57.08;77.83;;
47962;Laerm;33723;50.928;6.960;2022-12-07T07:12:56;68.01;55.86;74.79;;
47962;Laerm;33723;50.928;6.960;2022-12-07T07:15:22;67.45;56.28;73.52;;
47962;Laerm;33723;50.928;6.960;2022-12-07T07:17:47;70.06;59.51;79.18;;
47962;Laerm;33723;50.928;6.960;2022-12-07T07:20:12;70.50;58.14;82.47;;
47962;Laerm;33723;50.928;6.960;2022-12-07T07:22:37;65.84;52.96;74.84;;
47962;Laerm;33723;50.928;6.960;2022-12-07T07:25:03;69.86;54.48;86.52;;
47962;Laerm;33723;50.928;6.960;2022-12-07T07:27:28;70.52;55.73;81.77;;
47962;Laerm;33723;50.928;6.960;2022-12-07T07:29:53;69.07;55.65;75.80;;
47962;Laerm;33723;50.928;6.960;2022-12-07T07:32:19;68.89;57.29;80.18;;
47962;Laerm;33723;50.928;6.960;2022-12-07T07:34:44;68.32;55.34;75.96;;
47962;Laerm;33723;50.928;6.960;2022-12-07T07:37:09;67.59;55.96;76.08;;
47962;Laerm;33723;50.928;6.960;2022-12-07T07:39:37;69.85;55.95;79.22;;
47962;Laerm;33723;50.928;6.960;2022-12-07T07:42:02;68.08;54.37;75.13;;
47962;Laerm;33723;50.928;6.960;2022-12-07T07:44:28;67.74;55.52;76.15;;
47962;Laerm;33723;50.928;6.960;2022-12-07T07:46:53;69.16;58.15;77.14;;
47962;Laerm;33723;50.928;6.960;2022-12-07T07:49:19;69.94;57.18;78.09;;
47962;Laerm;33723;50.928;6.960;2022-12-07T07:51:44;68.23;55.53;77.49;;
47962;Laerm;33723;50.928;6.960;2022-12-07T07:54:09;70.59;57.22;80.73;;
47962;Laerm;33723;50.928;6.960;2022-12-07T07:56:34;67.50;54.74;75.48;;
47962;Laerm;33723;50.928;6.960;2022-12-07T07:58:59;67.07;54.20;78.12;;
47962;Laerm;33723;50.928;6.960;2022-12-07T08:01:25;69.64;54.37;79.65;;
47962;Laerm;33723;50.928;6.960;2022-12-07T08:03:51;69.34;56.71;78.59;;
47962;Laerm;33723;50.928;6.960;2022-12-07T08:06:16;67.57;56.22;73.67;;
47962;Laerm;33723;50.928;6.960;2022-12-07T08:08:41;68.63;54.25;80.44;;
47962;Laerm;33723;50.928;6.960;2022-12-07T08:11:07;67.18;53.80;75.33;;
47962;Laerm;33723;50.928;6.960;2022-12-07T08:13:33;65.41;55.15;72.33;;
47962;Laerm;33723;50.928;6.960;2022-12-07T08:15:58;66.45;55.38;72.48;;
47962;Laerm;33723;50.928;6.960;2022-12-07T08:18:28;69.39;55.65;79.20;;
47962;Laerm;33723;50.928;6.960;2022-12-07T08:20:58;67.59;54.72;76.18;;
47962;Laerm;33723;50.928;6.960;2022-12-07T08:23:23;69.98;54.92;93.48;;
47962;Laerm;33723;50.928;6.960;2022-12-07T08:25:48;68.18;53.92;85.79;;
47962;Laerm;33723;50.928;6.960;2022-12-07T08:28:14;69.01;56.02;78.62;;
47962;Laerm;33723;50.928;6.960;2022-12-07T08:30:40;67.77;55.83;80.88;;
47962;Laerm;33723;50.928;6.960;2022-12-07T08:33:05;68.43;56.34;79.77;;
47962;Laerm;33723;50.928;6.960;2022-12-07T08:35:32;68.82;57.15;77.94;;
47962;Laerm;33723;50.928;6.960;2022-12-07T08:37:57;66.34;53.71;82.64;;
47962;Laerm;33723;50.928;6.960;2022-12-07T08:40:22;65.40;54.67;73.02;;
47962;Laerm;33723;50.928;6.960;2022-12-07T08:42:48;67.31;55.77;75.98;;
47962;Laerm;33723;50.928;6.960;2022-12-07T08:45:14;66.73;53.01;77.84;;
47962;Laerm;33723;50.928;6.960;2022-12-07T08:47:42;68.19;57.49;76.77;;
47962;Laerm;33723;50.928;6.960;2022-12-07T08:50:09;64.29;51.62;73.47;;
47962;Laerm;33723;50.928;6.960;2022-12-07T08:52:35;71.09;55.07;81.14;;
47962;Laerm;33723;50.928;6.960;2022-12-07T08:55:00;69.39;53.77;76.69;;
47962;Laerm;33723;50.928;6.960;2022-12-07T08:57:27;67.26;53.61;77.24;;
47962;Laerm;33723;50.928;6.960;2022-12-07T08:59:53;68.91;55.66;76.64;;
47962;Laerm;33723;50.928;6.960;2022-12-07T09:02:18;65.51;52.02;73.59;;
47962;Laerm;33723;50.928;6.960;2022-12-07T09:04:43;69.12;53.49;78.84;;
47962;Laerm;33723;50.928;6.960;2022-12-07T09:07:09;67.79;54.33;86.17;;
47962;Laerm;33723;50.928;6.960;2022-12-07T09:09:34;67.18;52.98;75.04;;
47962;Laerm;33723;50.928;6.960;2022-12-07T09:11:59;66.09;52.48;73.94;;
47962;Laerm;33723;50.928;6.960;2022-12-07T09:14:25;66.66;51.54;75.44;;
47962;Laerm;33723;50.928;6.960;2022-12-07T09:16:50;67.42;52.84;75.63;;
47962;Laerm;33723;50.928;6.960;2022-12-07T09:19:15;68.00;55.81;75.51;;
47962;Laerm;33723;50.928;6.960;2022-12-07T09:21:40;66.84;52.17;79.57;;
47962;Laerm;33723;50.928;6.960;2022-12-07T09:24:06;65.23;53.20;75.87;;
47962;Laerm;33723;50.928;6.960;2022-12-07T09:26:31;68.58;57.75;77.36;;
47962;Laerm;33723;50.928;6.960;2022-12-07T09:28:56;66.05;54.76;73.84;;
47962;Laerm;33723;50.928;6.960;2022-12-07T09:31:21;66.47;53.46;73.62;;
47962;Laerm;33723;50.928;6.960;2022-12-07T09:33:46;66.50;56.58;74.61;;
47962;Laerm;33723;50.928;6.960;2022-12-07T09:36:12;67.31;55.37;76.85;;
47962;Laerm;33723;50.928;6.960;2022-12-07T09:38:37;66.99;52.86;77.51;;
47962;Laerm;33723;50.928;6.960;2022-12-07T09:41:06;68.22;53.96;82.47;;
47962;Laerm;33723;50.928;6.960;2022-12-07T09:43:32;67.46;53.02;75.40;;
47962;Laerm;33723;50.928;6.960;2022-12-07T09:45:59;66.50;53.01;72.19;;
47962;Laerm;33723;50.928;6.960;2022-12-07T09:48:30;67.15;54.29;76.23;;
47962;Laerm;33723;50.928;6.960;2022-12-07T09:50:57;65.84;49.25;74.53;;
47962;Laerm;33723;50.928;6.960;2022-12-07T09:53:27;67.87;54.79;76.61;;
47962;Laerm;33723;50.928;6.960;2022-12-07T09:55:53;65.71;53.79;74.47;;
47962;Laerm;33723;50.928;6.960;2022-12-07T09:58:22;68.67;54.96;79.18;;
47962;Laerm;33723;50.928;6.960;2022-12-07T10:00:49;66.59;53.39;72.57;;
47962;Laerm;33723;50.928;6.960;2022-12-07T10:03:15;65.28;53.21;73.48;;
47962;Laerm;33723;50.928;6.960;2022-12-07T10:05:45;68.70;53.47;78.89;;
47962;Laerm;33723;50.928;6.960;2022-12-07T10:08:11;66.12;53.88;76.71;;
47962;Laerm;33723;50.928;6.960;2022-12-07T10:10:36;67.62;49.46;76.75;;
47962;Laerm;33723;50.928;6.960;2022-12-07T10:13:04;66.69;54.32;75.57;;
47962;Laerm;33723;50.928;6.960;2022-12-07T10:15:40;69.47;52.08;84.59;;
47962;Laerm;33723;50.928;6.960;2022-12-07T10:18:13;67.87;52.98;77.36;;
47962;Laerm;33723;50.928;6.960;2022-12-07T10:20:41;68.52;55.19;77.50;;
47962;Laerm;33723;50.928;6.960;2022-12-07T10:23:12;70.25;56.94;87.69;;
47962;Laerm;33723;50.928;6.960;2022-12-07T10:25:38;67.27;53.10;77.88;;
47962;Laerm;33723;50.928;6.960;2022-12-07T10:30:45;65.68;50.76;77.72;;
47962;Laerm;33723;50.928;6.960;2022-12-07T10:35:55;66.43;55.94;75.74;;
47962;Laerm;33723;50.928;6.960;2022-12-07T10:38:20;66.14;54.73;75.90;;
47962;Laerm;33723;50.928;6.960;2022-12-07T10:40:45;66.98;56.65;73.47;;
47962;Laerm;33723;50.928;6.960;2022-12-07T10:48:30;65.16;51.83;76.82;;
47962;Laerm;33723;50.928;6.960;2022-12-07T11:01:21;64.56;52.57;72.45;;
47962;Laerm;33723;50.928;6.960;2022-12-07T11:11:36;68.33;59.15;80.98;;
47962;Laerm;33723;50.928;6.960;2022-12-07T11:19:16;68.38;52.39;75.25;;
47962;Laerm;33723;50.928;6.960;2022-12-07T11:21:48;65.54;52.65;73.50;;
47962;Laerm;33723;50.928;6.960;2022-12-07T11:24:19;65.72;52.41;73.49;;
47962;Laerm;33723;50.928;6.960;2022-12-07T11:29:29;67.92;55.45;78.54;;
47962;Laerm;33723;50.928;6.960;2022-12-07T11:32:14;67.38;52.75;87.25;;
47962;Laerm;33723;50.928;6.960;2022-12-07T11:34:51;65.93;53.84;76.58;;
47962;Laerm;33723;50.928;6.960;2022-12-07T11:37:21;70.19;57.57;84.97;;
47962;Laerm;33723;50.928;6.960;2022-12-07T11:39:51;67.35;54.60;83.50;;
47962;Laerm;33723;50.928;6.960;2022-12-07T11:44:53;68.75;56.38;80.34;;
47962;Laerm;33723;50.928;6.960;2022-12-07T11:47:25;67.50;55.70;76.39;;
47962;Laerm;33723;50.928;6.960;2022-12-07T11:55:05;66.05;53.59;91.03;;
47962;Laerm;33723;50.928;6.960;2022-12-07T11:57:40;67.33;51.86;78.81;;
47962;Laerm;33723;50.928;6.960;2022-12-07T12:00:16;64.81;53.06;75.25;;
47962;Laerm;33723;50.928;6.960;2022-12-07T12:05:18;67.01;55.92;75.70;;
47962;Laerm;33723;50.928;6.960;2022-12-07T12:07:46;67.50;53.26;84.97;;
47962;Laerm;33723;50.928;6.960;2022-12-07T12:10:21;67.90;52.47;76.42;;
47962;Laerm;33723;50.928;6.960;2022-12-07T12:13:23;67.41;53.22;78.63;;
47962;Laerm;33723;50.928;6.960;2022-12-07T12:15:51;67.65;54.76;80.74;;
47962;Laerm;33723;50.928;6.960;2022-12-07T12:18:33;67.96;56.91;77.84;;
47962;Laerm;33723;50.928;6.960;2022-12-07T12:21:22;67.70;54.59;84.30;;
47962;Laerm;33723;50.928;6.960;2022-12-07T12:26:23;66.73;55.54;77.12;;
47962;Laerm;33723;50.928;6.960;2022-12-07T12:28:51;68.19;52.83;81.56;;
47962;Laerm;33723;50.928;6.960;2022-12-07T12:33:52;66.31;53.50;76.29;;
47962;Laerm;33723;50.928;6.960;2022-12-07T12:36:19;67.70;52.85;76.63;;
47962;Laerm;33723;50.928;6.960;2022-12-07T12:38:49;68.18;55.43;79.32;;
47962;Laerm;33723;50.928;6.960;2022-12-07T12:43:58;67.13;53.31;75.88;;
47962;Laerm;33723;50.928;6.960;2022-12-07T12:51:42;65.30;52.22;73.10;;
47962;Laerm;33723;50.928;6.960;2022-12-07T12:54:27;65.89;51.75;78.60;;
47962;Laerm;33723;50.928;6.960;2022-12-07T13:05:14;65.51;52.15;75.21;;
47962;Laerm;33723;50.928;6.960;2022-12-07T13:10:22;66.61;53.66;75.69;;
47962;Laerm;33723;50.928;6.960;2022-12-07T13:13:34;65.45;54.24;73.53;;
47962;Laerm;33723;50.928;6.960;2022-12-07T13:18:02;66.69;52.71;76.98;;
47962;Laerm;33723;50.928;6.960;2022-12-07T13:20:42;66.45;54.25;77.47;;
47962;Laerm;33723;50.928;6.960;2022-12-07T13:23:08;66.22;53.22;77.97;;
47962;Laerm;33723;50.928;6.960;2022-12-07T13:25:36;66.48;52.80;73.36;;
47962;Laerm;33723;50.928;6.960;2022-12-07T13:33:32;65.01;51.78;74.15;;
47962;Laerm;33723;50.928;6.960;2022-12-07T13:35:59;66.73;52.85;78.29;;
47962;Laerm;33723;50.928;6.960;2022-12-07T13:38:27;67.86;55.76;76.42;;
47962;Laerm;33723;50.928;6.960;2022-12-07T13:41:00;68.26;55.35;78.95;;
47962;Laerm;33723;50.928;6.960;2022-12-07T13:43:25;67.81;54.22;77.51;;
47962;Laerm;33723;50.928;6.960;2022-12-07T13:45:55;67.61;55.82;77.24;;
47962;Laerm;33723;50.928;6.960;2022-12-07T13:48:30;67.52;55.23;76.45;;
47962;Laerm;33723;50.928;6.960;2022-12-07T13:50:57;66.49;53.83;74.72;;
47962;Laerm;33723;50.928;6.960;2022-12-07T13:53:23;66.57;55.10;77.46;;
47962;Laerm;33723;50.928;6.960;2022-12-07T13:55:49;68.94;56.76;78.74;;
47962;Laerm;33723;50.928;6.960;2022-12-07T13:58:14;66.33;54.12;76.33;;
47962;Laerm;33723;50.928;6.960;2022-12-07T14:00:40;66.22;53.82;76.23;;
47962;Laerm;33723;50.928;6.960;2022-12-07T14:05:39;66.02;53.87;75.40;;
47962;Laerm;33723;50.928;6.960;2022-12-07T14:08:20;65.61;53.95;72.08;;
47962;Laerm;33723;50.928;6.960;2022-12-07T14:15:51;67.58;55.88;76.58;;
47962;Laerm;33723;50.928;6.960;2022-12-07T14:20:52;65.87;53.06;75.10;;
47962;Laerm;33723;50.928;6.960;2022-12-07T14:23:27;67.44;51.26;74.91;;
47962;Laerm;33723;50.928;6.960;2022-12-07T14:25:52;67.97;54.63;80.34;;
47962;Laerm;33723;50.928;6.960;2022-12-07T14:28:25;68.57;52.40;85.23;;
47962;Laerm;33723;50.928;6.960;2022-12-07T14:30:51;65.68;54.94;73.17;;
47962;Laerm;33723;50.928;6.960;2022-12-07T14:33:22;67.75;54.11;79.70;;
47962;Laerm;33723;50.928;6.960;2022-12-07T14:35:48;67.25;55.12;76.22;;
47962;Laerm;33723;50.928;6.960;2022-12-07T14:38:14;66.62;53.30;76.26;;
47962;Laerm;33723;50.928;6.960;2022-12-07T14:40:39;65.22;53.73;73.56;;
47962;Laerm;33723;50.928;6.960;2022-12-07T14:43:05;70.66;55.09;88.02;;
47962;Laerm;33723;50.928;6.960;2022-12-07T14:45:31;66.76;53.93;74.65;;
47962;Laerm;33723;50.928;6.960;2022-12-07T14:47:57;66.10;55.05;75.53;;
47962;Laerm;33723;50.928;6.960;2022-12-07T14:50:23;67.72;54.29;79.34;;
47962;Laerm;33723;50.928;6.960;2022-12-07T14:52:49;66.92;54.23;74.98;;
47962;Laerm;33723;50.928;6.960;2022-12-07T14:55:21;66.51;54.87;76.28;;
47962;Laerm;33723;50.928;6.960;2022-12-07T14:57:47;67.00;54.19;74.22;;
47962;Laerm;33723;50.928;6.960;2022-12-07T15:00:13;66.23;55.16;74.15;;
47962;Laerm;33723;50.928;6.960;2022-12-07T15:02:38;66.07;55.58;76.01;;
47962;Laerm;33723;50.928;6.960;2022-12-07T15:05:04;66.21;51.98;74.00;;
47962;Laerm;33723;50.928;6.960;2022-12-07T15:07:29;67.79;54.10;74.95;;
47962;Laerm;33723;50.928;6.960;2022-12-07T15:09:54;65.86;52.65;73.56;;
47962;Laerm;33723;50.928;6.960;2022-12-07T15:12:19;67.60;53.57;76.46;;
47962;Laerm;33723;50.928;6.960;2022-12-07T15:14:45;68.07;55.00;78.66;;
47962;Laerm;33723;50.928;6.960;2022-12-07T15:17:11;67.26;53.38;74.20;;
47962;Laerm;33723;50.928;6.960;2022-12-07T15:19:37;64.43;53.78;73.01;;
47962;Laerm;33723;50.928;6.960;2022-12-07T15:22:02;68.30;56.98;78.11;;
47962;Laerm;33723;50.928;6.960;2022-12-07T15:24:27;65.95;54.31;74.56;;
47962;Laerm;33723;50.928;6.960;2022-12-07T15:26:53;66.27;53.05;72.99;;
47962;Laerm;33723;50.928;6.960;2022-12-07T15:29:18;68.67;54.56;76.55;;
47962;Laerm;33723;50.928;6.960;2022-12-07T15:31:43;69.31;54.54;82.61;;
47962;Laerm;33723;50.928;6.960;2022-12-07T15:34:10;71.32;54.98;82.66;;
47962;Laerm;33723;50.928;6.960;2022-12-07T15:36:36;70.59;57.18;75.69;;
47962;Laerm;33723;50.928;6.960;2022-12-07T15:39:01;70.52;56.77;77.11;;
47962;Laerm;33723;50.928;6.960;2022-12-07T15:41:27;70.34;54.64;80.51;;
47962;Laerm;33723;50.928;6.960;2022-12-07T15:43:52;70.30;54.06;76.47;;
47962;Laerm;33723;50.928;6.960;2022-12-07T15:46:37;70.37;52.70;76.63;;
47962;Laerm;33723;50.928;6.960;2022-12-07T15:49:04;69.40;54.30;76.86;;
47962;Laerm;33723;50.928;6.960;2022-12-07T15:51:31;69.32;56.38;75.33;;
47962;Laerm;33723;50.928;6.960;2022-12-07T15:53:57;69.03;55.90;74.72;;
47962;Laerm;33723;50.928;6.960;2022-12-07T15:56:22;68.72;53.39;76.17;;
47962;Laerm;33723;50.928;6.960;2022-12-07T15:58:47;68.10;53.21;75.92;;
47962;Laerm;33723;50.928;6.960;2022-12-07T16:01:14;69.89;56.57;74.87;;
47962;Laerm;33723;50.928;6.960;2022-12-07T16:03:39;67.94;57.24;75.12;;
47962;Laerm;33723;50.928;6.960;2022-12-07T16:06:04;69.23;52.90;75.81;;
47962;Laerm;33723;50.928;6.960;2022-12-07T16:08:30;69.22;55.09;78.66;;
47962;Laerm;33723;50.928;6.960;2022-12-07T16:10:55;69.33;56.68;77.54;;
47962;Laerm;33723;50.928;6.960;2022-12-07T16:13:20;69.05;57.90;74.14;;
47962;Laerm;33723;50.928;6.960;2022-12-07T16:15:46;68.68;53.80;78.14;;
47962;Laerm;33723;50.928;6.960;2022-12-07T16:18:11;67.50;55.20;74.19;;
47962;Laerm;33723;50.928;6.960;2022-12-07T16:20:37;69.26;56.48;77.44;;
47962;Laerm;33723;50.928;6.960;2022-12-07T16:23:02;69.32;57.18;75.55;;
47962;Laerm;33723;50.928;6.960;2022-12-07T16:25:28;68.33;53.59;75.37;;
47962;Laerm;33723;50.928;6.960;2022-12-07T16:27:54;68.94;55.48;85.55;;
47962;Laerm;33723;50.928;6.960;2022-12-07T16:30:19;67.80;56.71;76.79;;
47962;Laerm;33723;50.928;6.960;2022-12-07T16:32:44;68.54;56.08;74.59;;
47962;Laerm;33723;50.928;6.960;2022-12-07T16:35:10;69.22;54.44;83.95;;
47962;Laerm;33723;50.928;6.960;2022-12-07T16:37:36;69.28;56.09;77.22;;
47962;Laerm;33723;50.928;6.960;2022-12-07T16:40:01;68.44;54.62;79.22;;
47962;Laerm;33723;50.928;6.960;2022-12-07T16:42:30;68.33;54.50;75.18;;
47962;Laerm;33723;50.928;6.960;2022-12-07T16:44:56;66.29;54.19;73.72;;
47962;Laerm;33723;50.928;6.960;2022-12-07T16:47:21;69.13;57.51;77.27;;
47962;Laerm;33723;50.928;6.960;2022-12-07T16:49:46;67.42;57.80;73.38;;
47962;Laerm;33723;50.928;6.960;2022-12-07T16:52:13;68.34;57.68;74.91;;
47962;Laerm;33723;50.928;6.960;2022-12-07T16:54:38;67.11;56.83;75.42;;
47962;Laerm;33723;50.928;6.960;2022-12-07T16:57:03;68.70;55.01;75.30;;
47962;Laerm;33723;50.928;6.960;2022-12-07T16:59:28;74.43;55.86;94.04;;
47962;Laerm;33723;50.928;6.960;2022-12-07T17:01:54;67.58;53.94;77.06;;
47962;Laerm;33723;50.928;6.960;2022-12-07T17:04:19;68.43;53.23;76.51;;
47962;Laerm;33723;50.928;6.960;2022-12-07T17:06:44;66.86;54.36;72.94;;
47962;Laerm;33723;50.928;6.960;2022-12-07T17:09:09;67.38;57.36;74.96;;
47962;Laerm;33723;50.928;6.960;2022-12-07T17:11:37;65.96;55.24;74.80;;
47962;Laerm;33723;50.928;6.960;2022-12-07T17:14:02;68.81;55.19;79.42;;
47962;Laerm;33723;50.928;6.960;2022-12-07T17:16:46;68.32;56.27;84.47;;
47962;Laerm;33723;50.928;6.960;2022-12-07T17:19:12;68.14;55.17;76.32;;
47962;Laerm;33723;50.928;6.960;2022-12-07T17:21:38;67.41;54.31;75.65;;
47962;Laerm;33723;50.928;6.960;2022-12-07T17:24:05;68.43;55.19;77.91;;
47962;Laerm;33723;50.928;6.960;2022-12-07T17:26:30;68.10;53.66;83.79;;
47962;Laerm;33723;50.928;6.960;2022-12-07T17:28:56;67.09;54.83;75.98;;
47962;Laerm;33723;50.928;6.960;2022-12-07T17:31:22;65.00;54.39;73.10;;
47962;Laerm;33723;50.928;6.960;2022-12-07T17:33:47;66.86;56.50;78.22;;
47962;Laerm;33723;50.928;6.960;2022-12-07T17:36:23;67.54;55.55;76.85;;
47962;Laerm;33723;50.928;6.960;2022-12-07T17:38:51;66.73;54.22;73.05;;
47962;Laerm;33723;50.928;6.960;2022-12-07T17:41:19;67.82;56.74;77.00;;
47962;Laerm;33723;50.928;6.960;2022-12-07T17:44:15;66.63;54.11;75.33;;
47962;Laerm;33723;50.928;6.960;2022-12-07T17:46:43;66.85;53.85;75.77;;
47962;Laerm;33723;50.928;6.960;2022-12-07T17:49:36;66.10;53.78;76.67;;
47962;Laerm;33723;50.928;6.960;2022-12-07T17:52:02;66.34;53.40;75.57;;
47962;Laerm;33723;50.928;6.960;2022-12-07T17:54:45;66.94;53.67;76.14;;
47962;Laerm;33723;50.928;6.960;2022-12-07T17:57:11;65.30;50.92;73.69;;
47962;Laerm;33723;50.928;6.960;2022-12-07T17:59:36;67.69;55.00;78.40;;
47962;Laerm;33723;50.928;6.960;2022-12-07T18:02:01;64.75;52.48;76.35;;
47962;Laerm;33723;50.928;6.960;2022-12-07T18:04:27;66.35;56.14;74.02;;
47962;Laerm;33723;50.928;6.960;2022-12-07T18:06:52;66.48;52.17;78.26;;
47962;Laerm;33723;50.928;6.960;2022-12-07T18:09:17;66.57;54.81;76.05;;
47962;Laerm;33723;50.928;6.960;2022-12-07T18:11:42;65.92;52.20;75.48;;
47962;Laerm;33723;50.928;6.960;2022-12-07T18:14:08;66.42;52.33;74.80;;
47962;Laerm;33723;50.928;6.960;2022-12-07T18:16:33;68.46;56.40;84.83;;
47962;Laerm;33723;50.928;6.960;2022-12-07T18:19:00;66.40;52.88;81.57;;
47962;Laerm;33723;50.928;6.960;2022-12-07T18:21:26;66.02;51.26;81.69;;
47962;Laerm;33723;50.928;6.960;2022-12-07T18:23:53;67.21;51.54;78.05;;
47962;Laerm;33723;50.928;6.960;2022-12-07T18:26:19;65.43;51.86;77.10;;
47962;Laerm;33723;50.928;6.960;2022-12-07T18:28:44;66.32;54.24;76.10;;
47962;Laerm;33723;50.928;6.960;2022-12-07T18:31:10;66.11;51.32;78.19;;
47962;Laerm;33723;50.928;6.960;2022-12-07T18:33:37;63.03;52.70;70.91;;
47962;Laerm;33723;50.928;6.960;2022-12-07T18:36:02;66.62;53.54;77.31;;
47962;Laerm;33723;50.928;6.960;2022-12-07T18:38:28;65.45;51.64;76.19;;
47962;Laerm;33723;50.928;6.960;2022-12-07T18:40:54;65.11;55.74;80.41;;
47962;Laerm;33723;50.928;6.960;2022-12-07T18:43:19;64.86;54.52;74.90;;
47962;Laerm;33723;50.928;6.960;2022-12-07T18:45:45;67.27;51.59;81.52;;
47962;Laerm;33723;50.928;6.960;2022-12-07T18:48:14;63.42;52.99;71.61;;
47962;Laerm;33723;50.928;6.960;2022-12-07T18:50:40;65.74;53.91;74.94;;
47962;Laerm;33723;50.928;6.960;2022-12-07T18:53:05;63.96;48.63;71.85;;
47962;Laerm;33723;50.928;6.960;2022-12-07T18:55:31;65.40;51.64;76.28;;
47962;Laerm;33723;50.928;6.960;2022-12-07T18:57:57;65.92;51.89;74.45;;
47962;Laerm;33723;50.928;6.960;2022-12-07T19:00:23;63.97;47.93;73.58;;
47962;Laerm;33723;50.928;6.960;2022-12-07T19:02:49;66.02;54.37;76.43;;
47962;Laerm;33723;50.928;6.960;2022-12-07T19:05:15;65.20;52.59;72.57;;
47962;Laerm;33723;50.928;6.960;2022-12-07T19:07:40;64.74;47.76;73.41;;
47962;Laerm;33723;50.928;6.960;2022-12-07T19:10:06;65.06;53.00;74.06;;
47962;Laerm;33723;50.928;6.960;2022-12-07T19:12:32;64.73;51.30;72.92;;
47962;Laerm;33723;50.928;6.960;2022-12-07T19:14:57;66.12;49.68;76.66;;
47962;Laerm;33723;50.928;6.960;2022-12-07T19:17:22;64.28;52.55;72.15;;
47962;Laerm;33723;50.928;6.960;2022-12-07T19:19:48;65.64;50.56;75.25;;
47962;Laerm;33723;50.928;6.960;2022-12-07T19:22:14;66.45;51.19;79.08;;
47962;Laerm;33723;50.928;6.960;2022-12-07T19:24:39;64.92;51.71;78.08;;
47962;Laerm;33723;50.928;6.960;2022-12-07T19:27:05;64.49;49.15;72.65;;
47962;Laerm;33723;50.928;6.960;2022-12-07T19:29:31;64.75;49.93;75.16;;
47962;Laerm;33723;50.928;6.960;2022-12-07T19:31:57;63.58;48.37;70.63;;
47962;Laerm;33723;50.928;6.960;2022-12-07T19:34:26;63.29;48.55;74.79;;
47962;Laerm;33723;50.928;6.960;2022-12-07T19:36:51;65.10;52.42;70.81;;
47962;Laerm;33723;50.928;6.960;2022-12-07T19:39:16;63.69;49.04;71.23;;
47962;Laerm;33723;50.928;6.960;2022-12-07T19:41:42;63.78;48.61;72.51;;
47962;Laerm;33723;50.928;6.960;2022-12-07T19:44:11;62.49;47.02;74.06;;
47962;Laerm;33723;50.928;6.960;2022-12-07T19:46:37;63.16;47.46;72.95;;
47962;Laerm;33723;50.928;6.960;2022-12-07T19:49:03;65.59;51.34;74.60;;
47962;Laerm;33723;50.928;6.960;2022-12-07T19:51:29;63.98;48.85;80.18;;
47962;Laerm;33723;50.928;6.960;2022-12-07T19:53:58;64.87;49.92;75.19;;
47962;Laerm;33723;50.928;6.960;2022-12-07T19:56:24;61.28;47.57;72.28;;
47962;Laerm;33723;50.928;6.960;2022-12-07T19:58:50;63.09;50.92;75.77;;
47962;Laerm;33723;50.928;6.960;2022-12-07T20:01:15;63.68;49.11;72.86;;
47962;Laerm;33723;50.928;6.960;2022-12-07T20:03:40;64.41;51.56;73.96;;
47962;Laerm;33723;50.928;6.960;2022-12-07T20:06:16;65.44;49.97;73.82;;
47962;Laerm;33723;50.928;6.960;2022-12-07T20:08:42;64.23;48.32;71.61;;
47962;Laerm;33723;50.928;6.960;2022-12-07T20:11:08;64.93;48.74;72.95;;
47962;Laerm;33723;50.928;6.960;2022-12-07T20:13:52;64.27;50.34;73.71;;
47962;Laerm;33723;50.928;6.960;2022-12-07T20:16:17;62.78;46.45;70.76;;
47962;Laerm;33723;50.928;6.960;2022-12-07T20:18:43;63.88;47.68;72.17;;
47962;Laerm;33723;50.928;6.960;2022-12-07T20:21:08;64.21;47.26;86.36;;
47962;Laerm;33723;50.928;6.960;2022-12-07T20:23:34;65.64;51.44;73.82;;
47962;Laerm;33723;50.928;6.960;2022-12-07T20:26:03;66.35;52.40;73.91;;
47962;Laerm;33723;50.928;6.960;2022-12-07T20:28:28;62.95;47.00;71.69;;
47962;Laerm;33723;50.928;6.960;2022-12-07T20:30:54;62.91;51.30;69.93;;
47962;Laerm;33723;50.928;6.960;2022-12-07T20:33:19;62.55;50.68;70.77;;
47962;Laerm;33723;50.928;6.960;2022-12-07T20:35:45;64.11;51.33;76.60;;
47962;Laerm;33723;50.928;6.960;2022-12-07T20:38:10;64.56;48.12;72.97;;
47962;Laerm;33723;50.928;6.960;2022-12-07T20:40:36;64.57;48.40;80.55;;
47962;Laerm;33723;50.928;6.960;2022-12-07T20:43:01;64.23;50.37;73.38;;
47962;Laerm;33723;50.928;6.960;2022-12-07T20:45:26;62.37;47.48;70.67;;
47962;Laerm;33723;50.928;6.960;2022-12-07T20:47:52;63.25;49.81;71.65;;
47962;Laerm;33723;50.928;6.960;2022-12-07T20:50:17;63.72;50.06;72.15;;
47962;Laerm;33723;50.928;6.960;2022-12-07T20:52:42;62.60;50.48;70.71;;
47962;Laerm;33723;50.928;6.960;2022-12-07T20:55:07;65.44;47.08;77.88;;
47962;Laerm;33723;50.928;6.960;2022-12-07T20:57:32;63.67;51.06;71.06;;
47962;Laerm;33723;50.928;6.960;2022-12-07T20:59:58;64.55;50.24;76.67;;
47962;Laerm;33723;50.928;6.960;2022-12-07T21:02:23;64.35;52.63;71.21;;
47962;Laerm;33723;50.928;6.960;2022-12-07T21:04:49;64.98;49.81;79.63;;
47962;Laerm;33723;50.928;6.960;2022-12-07T21:07:15;63.34;47.74;70.85;;
47962;Laerm;33723;50.928;6.960;2022-12-07T21:09:40;62.69;48.70;72.68;;
47962;Laerm;33723;50.928;6.960;2022-12-07T21:12:05;62.86;49.87;69.97;;
47962;Laerm;33723;50.928;6.960;2022-12-07T21:14:35;66.70;53.64;80.64;;